Time;durP1;ratioP1;P1;durP2;ratioP2;P2;SDS_P1;SDS_P2;PMS_P1;PMS_P2;Temp;Humidity;BMP_temperature;BMP_pressure;BME280_temperature;BME280_humidity;BME280_pressure;Samples;Min_cycle;Max_cycle;Signal;HPM_P1;HPM_P2
2022/05/13 00:01:34;;;;;;;4.78;3.20;;;14.60;58.90;;;;;;5109079;27;20495;-70
2022/05/13 00:04:01;;;;;;;6.65;3.33;;;14.60;58.70;;;;;;5110792;27;20934;-69
2022/05/13 00:06:28;;;;;;;5.45;3.30;;;14.60;58.90;;;;;;5102447;28;20485;-70
2022/05/13 00:08:54;;;;;;;5.30;3.05;;;14.60;59.10;;;;;;5101535;28;20914;-70
2022/05/13 00:11:21;;;;;;;4.43;3.50;;;14.50;59.20;;;;;;5105012;28;20843;-70
2022/05/13 00:13:48;;;;;;;5.88;3.30;;;14.50;59.30;;;;;;5105135;28;20982;-70
2022/05/13 00:16:14;;;;;;;6.95;3.55;;;14.40;59.80;;;;;;5109482;28;20422;-70
2022/05/13 00:18:42;;;;;;;6.53;3.78;;;14.40;59.90;;;;;;5123863;27;20484;-70
2022/05/13 00:21:09;;;;;;;6.15;3.30;;;14.30;60.30;;;;;;5129689;28;20544;-70
2022/05/13 00:23:36;;;;;;;6.55;3.50;;;14.20;60.70;;;;;;5135156;27;20424;-70
2022/05/13 00:26:02;;;;;;;6.18;3.45;;;14.20;60.90;;;;;;5125960;28;20433;-70
2022/05/13 00:28:29;;;;;;;6.00;3.40;;;14.10;61.00;;;;;;5123111;28;20725;-69
2022/05/13 00:30:59;;;;;;;6.57;3.40;;;14.10;61.60;;;;;;5116403;27;20432;-69
2022/05/13 00:33:26;;;;;;;5.78;3.47;;;14.10;62.10;;;;;;5103367;28;20491;-70
2022/05/13 00:35:54;;;;;;;7.20;3.83;;;14.00;62.30;;;;;;5108554;27;20423;-69
2022/05/13 00:38:20;;;;;;;5.15;3.53;;;14.00;62.70;;;;;;5094334;28;20807;-70
2022/05/13 00:40:47;;;;;;;6.15;3.70;;;13.90;63.30;;;;;;5109249;28;20412;-70
2022/05/13 00:43:35;;;;;;;7.17;3.70;;;13.90;63.30;;;;;;5107906;27;20848;-69
2022/05/13 00:46:03;;;;;;;6.00;3.80;;;13.80;63.70;;;;;;5101351;28;20428;-69
2022/05/13 00:48:30;;;;;;;6.50;3.50;;;13.70;63.80;;;;;;5094432;28;20414;-69
2022/05/13 00:50:58;;;;;;;6.33;3.60;;;13.70;64.00;;;;;;5104518;28;20597;-69
2022/05/13 00:53:27;;;;;;;7.05;3.60;;;13.60;64.40;;;;;;5102578;28;20430;-70
2022/05/13 00:55:54;;;;;;;7.27;3.90;;;13.60;64.80;;;;;;5093004;28;20585;-70
2022/05/13 00:58:22;;;;;;;5.10;3.57;;;13.60;65.20;;;;;;5096818;28;20433;-69
2022/05/13 01:00:49;;;;;;;7.77;3.87;;;13.60;64.60;;;;;;5097290;28;20496;-69
2022/05/13 01:03:16;;;;;;;7.45;3.90;;;13.50;64.40;;;;;;5098289;28;20427;-69
2022/05/13 01:05:45;;;;;;;6.60;3.75;;;13.50;64.30;;;;;;5104292;28;20408;-69
2022/05/13 01:08:13;;;;;;;5.30;3.87;;;13.50;64.30;;;;;;5096991;28;20431;-70
2022/05/13 01:10:43;;;;;;;7.10;3.70;;;13.50;63.80;;;;;;5101195;28;20492;-70
2022/05/13 01:13:15;;;;;;;6.40;3.17;;;13.50;63.60;;;;;;5115156;28;20459;-69
2022/05/13 01:15:43;;;;;;;4.40;2.90;;;13.50;63.90;;;;;;5115839;28;20546;-69
2022/05/13 01:18:10;;;;;;;4.75;2.90;;;13.50;62.70;;;;;;5101519;28;20443;-69
2022/05/13 01:20:40;;;;;;;5.70;3.20;;;13.50;62.10;;;;;;5098255;28;20522;-69
2022/05/13 01:23:11;;;;;;;6.65;2.67;;;13.60;61.50;;;;;;5097867;28;20423;-69
2022/05/13 01:25:42;;;;;;;5.68;3.20;;;13.60;60.90;;;;;;5104983;28;20450;-70
2022/05/13 01:28:13;;;;;;;5.05;2.70;;;13.50;60.90;;;;;;5108306;28;20432;-70
2022/05/13 01:30:43;;;;;;;4.25;2.70;;;13.50;60.80;;;;;;5105962;28;20437;-69
2022/05/13 01:33:10;;;;;;;6.80;2.60;;;13.50;60.70;;;;;;5115635;28;21045;-71
2022/05/13 01:35:43;;;;;;;5.13;2.70;;;13.40;60.60;;;;;;5100301;28;20441;-69
2022/05/13 01:38:13;;;;;;;4.90;2.65;;;13.40;60.90;;;;;;5102209;28;20422;-70
2022/05/13 01:40:40;;;;;;;7.25;2.72;;;13.30;61.20;;;;;;5108602;28;20440;-69
2022/05/13 01:43:08;;;;;;;6.18;3.00;;;13.30;61.50;;;;;;5105451;27;20432;-69
2022/05/13 01:45:35;;;;;;;6.40;2.90;;;13.30;61.80;;;;;;5103764;28;21065;-70
2022/05/13 01:48:02;;;;;;;6.15;3.20;;;13.30;62.30;;;;;;5103131;28;20428;-70
2022/05/13 01:50:29;;;;;;;7.17;4.03;;;13.30;62.50;;;;;;5104675;28;20443;-69
2022/05/13 01:52:56;;;;;;;6.90;3.40;;;13.30;63.00;;;;;;5108819;27;20438;-70
2022/05/13 01:55:25;;;;;;;8.65;3.72;;;13.20;63.50;;;;;;5103297;28;20914;-70
2022/05/13 01:57:51;;;;;;;8.30;4.32;;;13.20;63.40;;;;;;5112737;27;20423;-70
2022/05/13 02:00:19;;;;;;;12.05;4.22;;;13.20;63.80;;;;;;5106631;27;20776;-71
2022/05/13 02:05:30;;;;;;;6.20;3.90;;;13.20;64.50;;;;;;5102868;28;21059;-69
2022/05/13 02:07:57;;;;;;;6.60;3.50;;;13.10;64.50;;;;;;5104915;28;20434;-69
2022/05/13 02:10:26;;;;;;;5.13;2.90;;;13.00;64.60;;;;;;5103869;28;20430;-69
2022/05/13 02:12:52;;;;;;;5.85;3.30;;;13.00;64.30;;;;;;5110747;27;20432;-69
2022/05/13 02:15:19;;;;;;;7.97;3.20;;;13.00;64.10;;;;;;5107274;28;20838;-69
2022/05/13 02:17:46;;;;;;;7.03;3.40;;;13.10;64.30;;;;;;5113085;27;20422;-70
2022/05/13 02:20:13;;;;;;;5.78;3.00;;;13.10;64.10;;;;;;5104265;28;20473;-69
2022/05/13 02:22:40;;;;;;;7.70;3.85;;;13.00;64.30;;;;;;5101287;28;20582;-69
2022/05/13 02:25:08;;;;;;;6.65;3.20;;;13.00;64.50;;;;;;5105090;27;20843;-70
2022/05/13 02:27:36;;;;;;;4.80;2.70;;;13.00;64.30;;;;;;5103735;27;20448;-69
2022/05/13 02:30:03;;;;;;;5.15;2.80;;;12.90;63.80;;;;;;5115585;27;20492;-69
2022/05/13 02:32:31;;;;;;;4.35;2.80;;;12.90;64.00;;;;;;5102933;28;20417;-69
2022/05/13 02:34:58;;;;;;;5.60;2.30;;;12.80;63.30;;;;;;5117962;27;20479;-69
2022/05/13 02:37:24;;;;;;;4.03;2.58;;;12.80;63.70;;;;;;5108899;28;20481;-69
2022/05/13 02:39:51;;;;;;;3.55;2.35;;;12.80;63.70;;;;;;5108677;28;20970;-70
2022/05/13 02:42:18;;;;;;;5.03;2.20;;;12.80;63.60;;;;;;5108532;28;20893;-70
2022/05/13 02:44:46;;;;;;;3.30;2.10;;;12.70;63.30;;;;;;5104103;28;20453;-69
2022/05/13 02:47:12;;;;;;;4.65;2.20;;;12.70;62.80;;;;;;5108827;28;20479;-70
2022/05/13 02:49:39;;;;;;;4.25;2.53;;;12.60;62.90;;;;;;5106223;28;20430;-69
2022/05/13 02:52:06;;;;;;;4.88;2.10;;;12.60;62.80;;;;;;5110156;28;20885;-69
2022/05/13 02:54:34;;;;;;;4.13;2.20;;;12.60;63.00;;;;;;5110234;28;20416;-69
2022/05/13 02:57:01;;;;;;;3.65;2.08;;;12.60;62.40;;;;;;5098509;28;20512;-69
2022/05/13 02:59:27;;;;;;;3.35;2.10;;;12.60;62.10;;;;;;5107786;28;20921;-70
2022/05/13 03:01:56;;;;;;;3.35;1.90;;;12.60;61.70;;;;;;5104686;28;20412;-69
2022/05/13 03:04:23;;;;;;;2.88;1.90;;;12.70;61.50;;;;;;5108263;28;20454;-70
2022/05/13 03:06:51;;;;;;;5.63;2.30;;;12.80;61.10;;;;;;5114182;27;20414;-70
2022/05/13 03:09:17;;;;;;;5.47;1.98;;;12.80;60.70;;;;;;5133254;22;20467;-68
2022/05/13 03:11:44;;;;;;;5.07;2.25;;;12.80;60.90;;;;;;5112743;27;20432;-68
2022/05/13 03:14:11;;;;;;;5.00;2.00;;;12.80;60.40;;;;;;5125080;27;20426;-70
2022/05/13 03:16:37;;;;;;;3.88;1.70;;;12.80;60.30;;;;;;5125967;27;20495;-68
2022/05/13 03:19:05;;;;;;;2.88;1.55;;;12.70;60.40;;;;;;5125269;27;20434;-68
2022/05/13 03:21:32;;;;;;;5.20;2.10;;;12.60;60.70;;;;;;5112156;27;20908;-68
2022/05/13 03:23:59;;;;;;;4.83;2.20;;;12.50;60.90;;;;;;5115346;27;20511;-69
2022/05/13 03:26:26;;;;;;;6.13;2.40;;;12.50;60.90;;;;;;5103063;27;20461;-69
2022/05/13 03:28:53;;;;;;;4.50;2.70;;;12.40;61.40;;;;;;5101988;27;20502;-68
2022/05/13 03:31:19;;;;;;;3.42;2.20;;;12.30;61.70;;;;;;5110047;27;20531;-70
2022/05/13 03:33:47;;;;;;;2.80;2.08;;;12.20;61.60;;;;;;5108099;27;20426;-68
2022/05/13 03:36:16;;;;;;;3.45;2.50;;;12.20;62.40;;;;;;5114926;27;20722;-70
2022/05/13 03:38:42;;;;;;;5.05;2.55;;;12.10;62.20;;;;;;5107372;27;20492;-70
2022/05/13 03:41:10;;;;;;;4.18;2.25;;;12.10;62.30;;;;;;5117719;27;20426;-68
2022/05/13 03:43:36;;;;;;;5.57;1.98;;;12.00;62.40;;;;;;5105278;27;20909;-69
2022/05/13 03:46:03;;;;;;;3.67;2.10;;;12.10;62.60;;;;;;5097442;27;20432;-68
2022/05/13 03:48:30;;;;;;;4.70;1.90;;;12.00;62.40;;;;;;5112226;27;20487;-68
2022/05/13 03:50:57;;;;;;;2.40;1.80;;;12.10;61.80;;;;;;5101314;27;20502;-68
2022/05/13 03:53:25;;;;;;;4.50;2.07;;;12.00;62.00;;;;;;5104159;27;20424;-68
2022/05/13 03:55:52;;;;;;;4.60;2.00;;;12.00;62.20;;;;;;5106983;27;20541;-67
2022/05/13 03:58:19;;;;;;;3.70;1.70;;;12.00;62.10;;;;;;5105692;27;20497;-68
2022/05/13 04:00:46;;;;;;;3.53;1.90;;;11.90;62.40;;;;;;5102918;27;20916;-67
2022/05/13 04:03:14;;;;;;;4.38;2.00;;;11.90;62.50;;;;;;5105218;27;20424;-68
2022/05/13 04:11:11;;;;;;;4.82;2.00;;;11.80;63.20;;;;;;5103179;27;20419;-68
2022/05/13 04:16:22;;;;;;;6.38;2.20;;;11.80;63.90;;;;;;5106416;27;20489;-66
2022/05/13 04:18:50;;;;;;;4.63;1.90;;;11.80;63.40;;;;;;5097069;28;20438;-69
2022/05/13 04:21:21;;;;;;;4.93;1.83;;;11.80;63.50;;;;;;5095514;27;20509;-67
2022/05/13 04:23:51;;;;;;;4.85;2.30;;;11.80;64.00;;;;;;5102959;27;21810;-67
2022/05/13 04:26:18;;;;;;;5.15;2.15;;;11.80;63.40;;;;;;5106125;27;20422;-66
2022/05/13 04:28:48;;;;;;;4.97;2.10;;;11.90;63.20;;;;;;5104980;27;20422;-67
2022/05/13 04:31:16;;;;;;;5.80;2.00;;;12.00;63.40;;;;;;5103591;27;20583;-66
2022/05/13 04:33:43;;;;;;;5.90;2.33;;;12.00;63.00;;;;;;5102601;27;20429;-67
2022/05/13 04:36:10;;;;;;;4.60;1.90;;;12.00;63.10;;;;;;5098636;27;20429;-65
2022/05/13 04:38:37;;;;;;;3.83;2.33;;;12.00;63.10;;;;;;5101262;27;20425;-69
2022/05/13 04:43:52;;;;;;;5.22;2.30;;;12.00;63.10;;;;;;5101114;27;20429;-68
2022/05/13 04:46:19;;;;;;;5.45;2.17;;;12.00;63.00;;;;;;5105506;27;20793;-69
2022/05/13 04:48:47;;;;;;;5.77;2.70;;;12.00;63.70;;;;;;5108720;27;20458;-71
2022/05/13 04:51:13;;;;;;;5.70;2.58;;;12.00;63.20;;;;;;5104784;27;20917;-69
2022/05/13 04:53:40;;;;;;;5.47;2.35;;;12.10;62.70;;;;;;5098845;27;20421;-69
2022/05/13 04:56:09;;;;;;;5.50;2.60;;;12.10;62.30;;;;;;5098859;28;21084;-69
2022/05/13 04:58:38;;;;;;;4.60;2.50;;;12.10;62.50;;;;;;5104870;27;20428;-69
2022/05/13 05:01:07;;;;;;;5.63;2.70;;;12.00;62.70;;;;;;5099500;27;20513;-68
2022/05/13 05:03:35;;;;;;;4.57;2.20;;;12.10;62.80;;;;;;5100565;27;20496;-71
2022/05/13 05:06:03;;;;;;;4.88;2.20;;;12.10;62.80;;;;;;5110494;27;20898;-68
2022/05/13 05:08:30;;;;;;;5.63;2.55;;;12.10;62.80;;;;;;5099381;27;20794;-68
2022/05/13 05:10:58;;;;;;;4.85;2.60;;;12.00;63.00;;;;;;5096088;28;20436;-67
2022/05/13 05:13:30;;;;;;;5.82;2.50;;;12.00;63.20;;;;;;5101452;28;20435;-66
2022/05/13 05:15:57;;;;;;;6.22;2.30;;;12.10;63.30;;;;;;5101395;28;20420;-71
2022/05/13 05:18:24;;;;;;;6.77;2.70;;;12.10;63.20;;;;;;5104014;28;20476;-69
2022/05/13 05:20:51;;;;;;;6.85;2.60;;;12.20;63.00;;;;;;5101377;28;20436;-69
2022/05/13 05:23:20;;;;;;;4.78;2.50;;;12.10;63.10;;;;;;5095387;28;20487;-67
2022/05/13 05:25:47;;;;;;;5.03;2.42;;;12.10;64.10;;;;;;5102568;28;20483;-67
2022/05/13 05:28:14;;;;;;;4.90;2.20;;;12.10;63.30;;;;;;5097048;28;20534;-67
2022/05/13 05:30:44;;;;;;;5.43;2.50;;;12.10;63.40;;;;;;5101057;28;20430;-67
2022/05/13 05:33:11;;;;;;;5.97;2.60;;;12.10;63.40;;;;;;5101280;28;20451;-68
2022/05/13 05:35:38;;;;;;;5.32;2.50;;;12.10;63.70;;;;;;5110282;28;20499;-69
2022/05/13 05:38:07;;;;;;;4.90;2.45;;;12.00;63.80;;;;;;5093827;28;20440;-70
2022/05/13 05:40:34;;;;;;;7.30;2.60;;;12.00;64.00;;;;;;5103975;28;20885;-66
2022/05/13 05:43:04;;;;;;;5.30;2.50;;;12.00;64.20;;;;;;5101456;28;20445;-67
2022/05/13 05:45:31;;;;;;;4.78;2.60;;;12.10;64.20;;;;;;5099237;28;20503;-68
2022/05/13 05:47:59;;;;;;;4.90;2.60;;;12.20;63.80;;;;;;5103642;28;20480;-68
2022/05/13 05:50:26;;;;;;;5.47;2.80;;;12.30;63.40;;;;;;5100210;28;20604;-67
2022/05/13 05:52:53;;;;;;;6.88;3.25;;;12.40;62.80;;;;;;5099490;28;20445;-67
2022/05/13 05:58:06;;;;;;;6.95;3.20;;;12.40;63.60;;;;;;5094537;28;20872;-73
2022/05/13 06:00:35;;;;;;;4.18;2.58;;;12.50;63.10;;;;;;5094880;28;20443;-71
2022/05/13 06:03:04;;;;;;;6.88;3.03;;;12.50;63.20;;;;;;5094129;28;20444;-69
2022/05/13 06:05:31;;;;;;;4.50;2.80;;;12.60;62.40;;;;;;5095813;28;20932;-73
2022/05/13 06:08:00;;;;;;;4.88;2.90;;;12.60;63.00;;;;;;5086829;28;20414;-73
2022/05/13 06:10:27;;;;;;;7.53;3.00;;;12.70;62.90;;;;;;5092446;28;20903;-71
2022/05/13 06:12:54;;;;;;;9.90;3.50;;;12.70;62.60;;;;;;5098372;28;20502;-72
2022/05/13 06:15:22;;;;;;;9.10;3.60;;;12.60;62.50;;;;;;5106755;28;20529;-72
2022/05/13 06:17:50;;;;;;;8.43;3.13;;;12.70;63.70;;;;;;5100633;28;20469;-69
2022/05/13 06:20:20;;;;;;;6.77;3.00;;;13.00;61.80;;;;;;5099855;28;20505;-72
2022/05/13 06:22:47;;;;;;;5.88;3.00;;;13.10;61.30;;;;;;5102432;28;20495;-69
2022/05/13 06:25:16;;;;;;;7.68;3.20;;;13.10;61.10;;;;;;5103006;28;20512;-70
2022/05/13 06:27:44;;;;;;;8.80;3.55;;;13.10;61.40;;;;;;5102105;27;20512;-70
2022/05/13 06:30:16;;;;;;;6.22;2.85;;;13.10;61.30;;;;;;5105735;28;20428;-70
2022/05/13 06:32:43;;;;;;;8.35;3.80;;;13.20;61.50;;;;;;5104139;28;20485;-70
2022/05/13 06:35:11;;;;;;;8.73;3.10;;;13.30;60.70;;;;;;5104605;28;20432;-70
2022/05/13 06:37:39;;;;;;;9.13;2.47;;;13.30;61.70;;;;;;5104629;28;20484;-69
2022/05/13 06:40:07;;;;;;;4.72;2.80;;;13.50;60.30;;;;;;5099213;28;20842;-73
2022/05/13 06:42:34;;;;;;;4.38;2.40;;;13.70;60.20;;;;;;5105497;27;20449;-73
2022/05/13 06:45:01;;;;;;;5.13;2.60;;;13.90;59.20;;;;;;5097602;28;20463;-71
2022/05/13 06:47:27;;;;;;;7.32;2.70;;;14.00;58.60;;;;;;5100546;28;20503;-73
2022/05/13 06:49:54;;;;;;;7.10;3.03;;;14.00;58.80;;;;;;5106626;28;20477;-73
2022/05/13 06:52:21;;;;;;;8.17;2.90;;;14.10;58.50;;;;;;5102015;28;20544;-71
2022/05/13 06:54:49;;;;;;;6.10;2.57;;;14.30;58.20;;;;;;5102553;28;20439;-72
2022/05/13 06:57:15;;;;;;;4.10;2.45;;;14.40;57.20;;;;;;5096649;27;20440;-73
2022/05/13 06:59:42;;;;;;;5.03;2.80;;;14.30;57.50;;;;;;5104011;27;20428;-72
2022/05/13 07:02:09;;;;;;;5.40;2.50;;;14.50;57.30;;;;;;5102877;28;20476;-74
2022/05/13 07:04:35;;;;;;;8.00;4.00;;;14.50;56.70;;;;;;5104811;28;20458;-75
2022/05/13 07:07:02;;;;;;;4.80;2.50;;;14.50;57.30;;;;;;5104439;28;20466;-70
2022/05/13 07:09:29;;;;;;;7.77;3.10;;;14.50;56.50;;;;;;5103020;28;20515;-73
2022/05/13 07:11:57;;;;;;;7.57;3.13;;;14.30;57.10;;;;;;5098077;27;20434;-71
2022/05/13 07:14:23;;;;;;;5.97;2.47;;;14.40;57.40;;;;;;5094951;28;20431;-70
2022/05/13 07:16:50;;;;;;;5.47;2.58;;;14.40;56.50;;;;;;5101819;28;20509;-74
2022/05/13 07:19:17;;;;;;;5.93;2.60;;;14.20;57.20;;;;;;5094120;27;20502;-73
2022/05/13 07:21:43;;;;;;;6.20;2.20;;;14.40;57.20;;;;;;5104221;28;20520;-71
2022/05/13 07:24:10;;;;;;;7.10;3.08;;;14.40;56.40;;;;;;5101982;28;20434;-71
2022/05/13 07:26:37;;;;;;;4.27;2.63;;;14.40;56.80;;;;;;5092843;27;20428;-71
2022/05/13 07:29:06;;;;;;;5.38;2.22;;;14.70;55.90;;;;;;5102985;28;20680;-71
2022/05/13 07:31:33;;;;;;;5.10;2.45;;;14.90;54.60;;;;;;5104617;28;20496;-72
2022/05/13 07:34:00;;;;;;;4.80;2.45;;;15.00;54.20;;;;;;5102865;28;20488;-72
2022/05/13 07:36:27;;;;;;;7.63;2.30;;;15.30;53.60;;;;;;5101186;28;20419;-72
2022/05/13 07:41:38;;;;;;;4.77;2.20;;;15.70;52.50;;;;;;5104438;27;20869;-71
2022/05/13 07:44:07;;;;;;;5.68;2.40;;;16.00;50.80;;;;;;5094926;28;21866;-73
2022/05/13 07:46:33;;;;;;;5.07;2.20;;;15.90;50.70;;;;;;5096922;28;20415;-67
2022/05/13 07:49:00;;;;;;;5.15;2.10;;;15.70;51.70;;;;;;5099732;27;20497;-72
2022/05/13 07:51:26;;;;;;;5.95;2.40;;;15.70;52.00;;;;;;5100693;27;20430;-71
2022/05/13 07:53:53;;;;;;;5.78;2.00;;;15.90;51.30;;;;;;5100931;27;20817;-70
2022/05/13 07:56:20;;;;;;;3.67;2.30;;;15.90;51.70;;;;;;5101483;28;20428;-75
2022/05/13 07:58:47;;;;;;;6.55;2.22;;;16.20;51.00;;;;;;5103415;28;20485;-70
2022/05/13 08:01:15;;;;;;;4.50;2.00;;;16.30;51.00;;;;;;5103715;28;20485;-70
2022/05/13 08:03:43;;;;;;;6.13;2.15;;;16.40;49.60;;;;;;5098259;27;21331;-70
2022/05/13 08:06:13;;;;;;;4.70;1.93;;;16.20;50.00;;;;;;5102007;27;20511;-70
2022/05/13 08:08:42;;;;;;;6.10;2.40;;;16.00;50.70;;;;;;5104113;28;20435;-70
2022/05/13 08:11:12;;;;;;;8.55;2.28;;;15.90;51.10;;;;;;5095760;28;20428;-72
2022/05/13 08:13:40;;;;;;;4.03;2.00;;;15.90;51.00;;;;;;5100792;28;20424;-71
2022/05/13 08:16:11;;;;;;;4.03;1.90;;;16.00;51.60;;;;;;5095588;27;20489;-70
2022/05/13 08:18:40;;;;;;;4.32;2.10;;;16.30;49.90;;;;;;5104389;27;20424;-71
2022/05/13 08:21:07;;;;;;;5.75;2.15;;;16.50;49.50;;;;;;5100228;28;20414;-71
2022/05/13 08:23:34;;;;;;;4.65;2.00;;;16.50;50.00;;;;;;5100773;27;20428;-72
2022/05/13 08:26:01;;;;;;;5.22;1.70;;;16.60;49.50;;;;;;5099882;28;20967;-71
2022/05/13 08:28:28;;;;;;;4.63;1.70;;;16.90;47.40;;;;;;5094786;28;20418;-71
2022/05/13 08:30:55;;;;;;;4.80;2.00;;;17.10;47.10;;;;;;5100580;28;20657;-72
2022/05/13 08:33:22;;;;;;;3.95;1.58;;;17.30;46.20;;;;;;5101621;28;20746;-71
2022/05/13 08:35:53;;;;;;;5.03;1.77;;;17.40;46.10;;;;;;5099004;27;20491;-72
2022/05/13 08:38:22;;;;;;;2.65;1.50;;;17.50;46.00;;;;;;5107830;27;20433;-71
2022/05/13 08:41:05;;;;;;;6.60;2.00;;;17.40;46.90;;;;;;5094076;27;20448;-71
2022/05/13 08:43:35;;;;;;;3.10;1.60;;;17.40;46.00;;;;;;5098487;27;20929;-71
2022/05/13 08:46:07;;;;;;;6.22;1.95;;;17.40;45.80;;;;;;5101467;28;20443;-71
2022/05/13 08:48:37;;;;;;;6.57;1.80;;;17.30;46.50;;;;;;5100224;28;20435;-71
2022/05/13 08:51:12;;;;;;;5.45;1.55;;;17.70;45.70;;;;;;5095779;28;20444;-71
2022/05/13 08:53:50;;;;;;;3.03;1.60;;;17.90;44.70;;;;;;5092357;28;20897;-71
2022/05/13 08:56:25;;;;;;;5.37;1.73;;;17.80;45.10;;;;;;5091589;27;20576;-71
2022/05/13 08:58:57;;;;;;;4.23;1.67;;;17.80;45.10;;;;;;5101728;28;20424;-71
2022/05/13 09:01:28;;;;;;;3.17;1.35;;;17.70;45.20;;;;;;5101354;27;20458;-71
2022/05/13 09:04:00;;;;;;;5.22;1.80;;;17.50;45.50;;;;;;5093699;28;20495;-70
2022/05/13 09:06:36;;;;;;;7.10;1.90;;;17.40;45.70;;;;;;5092821;28;20513;-71
2022/05/13 09:09:05;;;;;;;5.28;2.30;;;17.40;45.10;;;;;;5086774;28;20501;-70
2022/05/13 09:11:35;;;;;;;3.75;1.42;;;17.50;45.10;;;;;;5099056;28;20480;-71
2022/05/13 09:14:11;;;;;;;4.57;1.63;;;17.60;45.30;;;;;;5100998;28;20428;-71
2022/05/13 09:16:50;;;;;;;8.00;2.30;;;18.00;43.00;;;;;;5093172;28;20472;-70
2022/05/13 09:19:26;;;;;;;5.38;1.40;;;18.10;42.40;;;;;;5102638;28;20424;-70
2022/05/13 09:21:54;;;;;;;5.27;1.40;;;18.30;41.70;;;;;;5100399;28;20428;-70
2022/05/13 09:24:21;;;;;;;3.40;1.25;;;18.40;41.10;;;;;;5099688;28;20492;-69
2022/05/13 09:26:47;;;;;;;4.20;1.60;;;18.60;40.90;;;;;;5088940;28;20496;-70
2022/05/13 09:29:16;;;;;;;5.68;1.40;;;18.70;41.10;;;;;;5096278;28;20937;-71
2022/05/13 09:31:47;;;;;;;3.60;1.20;;;18.70;41.90;;;;;;5100385;28;20431;-71
2022/05/13 09:34:30;;;;;;;2.42;1.20;;;19.00;38.40;;;;;;5101010;28;20436;-72
2022/05/13 09:37:10;;;;;;;4.30;1.30;;;19.30;38.90;;;;;;5086426;28;20779;-71
2022/05/13 09:39:39;;;;;;;2.55;1.10;;;19.40;38.00;;;;;;5097283;28;20776;-71
2022/05/13 09:42:24;;;;;;;4.00;1.10;;;19.30;37.50;;;;;;5099948;28;20430;-71
2022/05/13 09:44:52;;;;;;;3.50;1.10;;;19.20;38.40;;;;;;5100480;28;20539;-73
2022/05/13 09:47:28;;;;;;;3.63;1.50;;;19.10;38.30;;;;;;5100602;28;20487;-73
2022/05/13 09:49:55;;;;;;;2.97;1.10;;;19.00;39.60;;;;;;5098222;28;20432;-69
2022/05/13 09:52:30;;;;;;;2.95;1.50;;;19.30;38.90;;;;;;5098021;28;20435;-70
2022/05/13 09:55:13;;;;;;;3.30;1.30;;;18.80;39.60;;;;;;5105143;28;20501;-70
2022/05/13 09:57:40;;;;;;;6.90;1.70;;;18.50;41.30;;;;;;5098735;28;20432;-68
2022/05/13 10:00:13;;;;;;;4.47;1.20;;;18.40;40.20;;;;;;5106267;28;20423;-66
2022/05/13 10:02:42;;;;;;;4.20;1.13;;;18.70;41.30;;;;;;5104502;28;20428;-69
2022/05/13 10:05:16;;;;;;;2.60;1.00;;;19.60;38.20;;;;;;5098244;28;20434;-70
2022/05/13 10:07:55;;;;;;;2.88;1.27;;;19.80;37.90;;;;;;5103674;27;20432;-69
2022/05/13 10:15:58;;;;;;;4.25;1.20;;;19.50;38.90;;;;;;5105976;28;20972;-70
2022/05/13 10:18:29;;;;;;;2.83;1.10;;;19.30;38.90;;;;;;5102517;27;20428;-70
2022/05/13 10:21:00;;;;;;;2.30;1.50;;;19.20;38.90;;;;;;5090534;27;20498;-69
2022/05/13 10:23:33;;;;;;;2.10;1.20;;;18.80;40.00;;;;;;5106124;27;20507;-70
2022/05/13 10:26:03;;;;;;;4.38;1.20;;;18.80;41.10;;;;;;5098181;27;20832;-70
2022/05/13 10:28:35;;;;;;;2.80;1.30;;;18.40;41.20;;;;;;5105315;28;20408;-70
2022/05/13 10:31:08;;;;;;;3.03;1.30;;;18.30;41.60;;;;;;5103413;28;20428;-71
2022/05/13 10:33:41;;;;;;;3.20;1.40;;;18.40;40.60;;;;;;5105585;28;20435;-70
2022/05/13 10:36:11;;;;;;;3.17;1.35;;;18.30;39.90;;;;;;5093376;28;21179;-70
2022/05/13 10:38:43;;;;;;;5.28;1.80;;;18.60;40.20;;;;;;5100527;28;20439;-70
2022/05/13 10:41:31;;;;;;;4.70;1.38;;;18.70;39.50;;;;;;5102362;27;21041;-70
2022/05/13 10:44:02;;;;;;;4.07;1.58;;;18.90;40.40;;;;;;5105530;28;20432;-70
2022/05/13 10:46:37;;;;;;;3.97;1.30;;;18.90;39.50;;;;;;5098272;28;20412;-69
2022/05/13 10:49:04;;;;;;;5.80;1.58;;;18.50;40.70;;;;;;5098439;28;20426;-71
2022/05/13 10:51:39;;;;;;;7.45;1.70;;;18.60;41.30;;;;;;5104173;27;20432;-70
2022/05/13 10:54:39;;;;;;;3.10;1.30;;;19.10;39.00;;;;;;5098971;28;20439;-71
2022/05/13 10:57:19;;;;;;;2.72;1.10;;;19.20;38.80;;;;;;5099327;28;20515;-70
2022/05/13 10:59:57;;;;;;;3.50;1.10;;;19.00;39.30;;;;;;5093597;28;20420;-71
2022/05/13 11:02:52;;;;;;;1.05;0.82;;;18.90;38.50;;;;;;5091751;28;20505;-73
2022/05/13 11:05:36;;;;;;;3.25;1.10;;;19.00;39.30;;;;;;5098346;28;20440;-70
2022/05/13 11:08:12;;;;;;;4.80;1.60;;;19.40;38.60;;;;;;5091568;28;20425;-69
2022/05/13 11:10:50;;;;;;;4.57;1.40;;;19.80;37.10;;;;;;5094401;28;20428;-70
2022/05/13 11:13:23;;;;;;;2.90;1.10;;;19.90;36.50;;;;;;5100266;27;20960;-68
2022/05/13 11:15:57;;;;;;;4.00;1.00;;;19.90;36.20;;;;;;5099525;27;20440;-68
2022/05/13 11:18:38;;;;;;;3.00;1.10;;;19.70;36.30;;;;;;5100106;28;20489;-68
2022/05/13 11:21:19;;;;;;;3.42;1.08;;;19.60;36.90;;;;;;5124097;22;20481;-72
2022/05/13 11:26:41;;;;;;;3.80;1.20;;;20.10;36.20;;;;;;5105149;28;20433;-67
2022/05/13 11:29:10;;;;;;;4.53;1.10;;;20.20;36.20;;;;;;5103377;28;20420;-66
2022/05/13 11:31:56;;;;;;;3.45;0.90;;;20.20;36.00;;;;;;5088215;28;20433;-75
2022/05/13 11:34:36;;;;;;;2.90;1.00;;;20.10;36.10;;;;;;5086371;28;21161;-71
2022/05/13 11:37:05;;;;;;;2.80;1.52;;;20.10;36.50;;;;;;5087903;28;20422;-69
2022/05/13 11:39:48;;;;;;;3.80;1.20;;;19.80;36.20;;;;;;5091661;28;20452;-69
2022/05/13 11:42:31;;;;;;;3.17;1.20;;;19.80;36.70;;;;;;5091815;28;20429;-70
2022/05/13 11:45:15;;;;;;;3.60;1.20;;;19.40;37.00;;;;;;5080569;28;20520;-73
2022/05/13 11:47:51;;;;;;;5.03;1.33;;;19.40;37.80;;;;;;5093912;28;20491;-74
2022/05/13 11:50:18;;;;;;;2.72;1.10;;;19.60;36.40;;;;;;5089456;28;20422;-75
2022/05/13 11:52:48;;;;;;;3.97;1.45;;;19.60;36.40;;;;;;5087824;28;20487;-74
2022/05/13 11:55:19;;;;;;;3.53;1.10;;;19.40;37.60;;;;;;5088471;28;20490;-75
2022/05/13 11:57:49;;;;;;;4.00;1.30;;;19.40;37.70;;;;;;5085284;28;20554;-74
2022/05/13 12:00:25;;;;;;;3.83;1.15;;;19.30;37.50;;;;;;5090743;28;20428;-74
2022/05/13 12:02:55;;;;;;;2.30;1.00;;;19.60;37.90;;;;;;5089121;28;20430;-74
2022/05/13 12:05:28;;;;;;;1.90;0.90;;;20.30;38.60;;;;;;5094380;28;20452;-76
2022/05/13 12:08:07;;;;;;;1.70;0.95;;;20.50;35.50;;;;;;5107142;28;20418;-74
2022/05/13 12:10:40;;;;;;;4.60;1.45;;;20.50;35.30;;;;;;5104875;28;20505;-73
2022/05/13 12:13:22;;;;;;;2.40;0.90;;;20.40;34.80;;;;;;5100476;28;20434;-74
2022/05/13 12:16:08;;;;;;;4.82;1.13;;;20.40;36.80;;;;;;5088585;28;20532;-75
2022/05/13 12:18:41;;;;;;;4.38;1.90;;;20.90;36.10;;;;;;5086958;28;20425;-75
2022/05/13 12:21:16;;;;;;;3.60;2.40;;;21.60;35.40;;;;;;5087060;28;20433;-74
2022/05/13 12:23:50;;;;;;;5.80;3.13;;;21.90;33.90;;;;;;5086305;28;20433;-73
2022/05/13 12:26:23;;;;;;;7.38;3.78;;;22.10;33.40;;;;;;5088996;28;20980;-75
2022/05/13 12:29:17;;;;;;;5.88;3.70;;;22.10;33.30;;;;;;5086838;28;20479;-75
2022/05/13 12:32:09;;;;;;;5.15;3.30;;;22.40;33.60;;;;;;5084579;28;20546;-77
2022/05/13 12:37:35;;;;;;;3.38;1.83;;;22.50;31.20;;;;;;5084706;28;20455;-77
2022/05/13 12:40:13;;;;;;;4.47;2.58;;;22.00;33.10;;;;;;5085889;28;20430;-74
2022/05/13 12:42:50;;;;;;;5.10;3.00;;;22.20;34.20;;;;;;5086128;28;20479;-76
2022/05/13 12:45:39;;;;;;;4.82;4.40;;;22.70;32.60;;;;;;5087674;28;20808;-77
2022/05/13 12:48:18;;;;;;;4.32;2.03;;;22.90;31.40;;;;;;5086896;28;20441;-78
2022/05/13 12:50:48;;;;;;;3.27;1.70;;;23.10;30.30;;;;;;5087822;28;20434;-77
2022/05/13 12:53:44;;;;;;;1.63;0.97;;;22.80;30.80;;;;;;5084435;28;20489;-78
2022/05/13 12:56:17;;;;;;;2.37;1.30;;;22.90;32.30;;;;;;5088376;28;20406;-76
2022/05/13 12:58:47;;;;;;;2.13;1.00;;;22.70;30.90;;;;;;5085749;28;20429;-76
2022/05/13 13:01:16;;;;;;;1.88;0.90;;;22.60;31.70;;;;;;5089186;28;20483;-76
2022/05/13 13:03:45;;;;;;;4.15;1.20;;;22.60;31.00;;;;;;5084585;28;20435;-77
2022/05/13 13:06:17;;;;;;;2.83;1.50;;;22.30;31.50;;;;;;5084511;28;20437;-69
2022/05/13 13:08:46;;;;;;;2.28;1.30;;;22.20;34.50;;;;;;5087133;28;20441;-67
2022/05/13 13:11:23;;;;;;;3.17;1.50;;;22.40;32.80;;;;;;5089267;28;20431;-67
2022/05/13 13:13:56;;;;;;;2.53;1.23;;;22.90;33.90;;;;;;5098150;28;20429;-66
2022/05/13 13:16:31;;;;;;;2.27;0.80;;;23.30;31.50;;;;;;5100894;28;21084;-66
2022/05/13 13:19:11;;;;;;;3.20;1.10;;;23.30;30.00;;;;;;5105487;28;20499;-68
2022/05/13 13:21:39;;;;;;;4.37;1.40;;;23.20;32.10;;;;;;5101839;28;20502;-68
2022/05/13 13:24:19;;;;;;;2.10;1.00;;;23.50;29.60;;;;;;5104930;28;20431;-69
2022/05/13 13:26:48;;;;;;;3.10;0.90;;;23.50;29.20;;;;;;5097406;28;20422;-69
2022/05/13 13:29:20;;;;;;;2.42;1.20;;;23.10;31.10;;;;;;5100422;28;20630;-70
2022/05/13 13:31:51;;;;;;;2.67;1.20;;;23.20;30.50;;;;;;5103286;28;20447;-67
2022/05/13 13:34:33;;;;;;;2.90;0.90;;;23.50;29.90;;;;;;5108504;28;20421;-67